John F Kennedy International Airport
KJFK : now visible

Airfield :











YOU CAN JOIN US ON...

 
LOGIN :

Register | Disclaimer

   EN    FR    IT 

 









Legend :    VFR   Marginal VFR   IFR   Intensive IFR   Very Intensive IFR
Visi :
Ceiling :
>= 8 km
>= 3000ft
5 to 8 km
1000 to 3000 ft
1500m to 5 km
500 to 1000 ft
800 to 1500m
200 to 500 ft
< 800m
< 200 ft
Symbols :   Thunderstorms  Fog  Heavy snow  Heavy precipitations  Wind > 20 kt






- Airport Elevation : 13 ft
- IATA code : JFK


KJFK - John F Kennedy International

CURRENT METAR :
  • 041851Z 18028G37KT 5SM -RA BKN013 BKN018 BKN034 23/20 A2949 RMK AO2 PK WND 16058/1757 SLP986 BKN013 V SCT P0000 T02280200 $

EXPIRED METARs :
  • 041842Z 17031G38KT 5SM -RA BKN013 OVC031 22/19 A2948 RMK AO2 PK WND 16058/1757 BKN V SCT P0000 T02220194 $
  • 041751Z 16040G54KT 4SM -RA BKN021 OVC026 23/20 A2951 RMK AO2 PK WND 16061/1725 RAE01B24 SLP993 P0000 60012 T02280200 10267 20228 56108 $
  • 041731Z 17044G61KT 4SM R04R/5500VP6000FT -RA BKN021 BKN026 OVC040 24/22 A2955 RMK AO2 PK WND 16061/1725 RAE01B24 P0000 T02440217 $
  • 041651Z 13035G46KT 7SM -RA BKN026 BKN050 OVC140 26/23 A2961 RMK AO2 PK WND 11052/1640 SLP025 P0004 T02560233 $

TAF KJFK
Valid from the 04 at 19:00 until the 06 at 00:00 UTC


041851Z 0419/0524 19035G52KT 5SM -SHRA BR SCT010 OVC025 WS020/16070KT
FM042200 22024G35KT P6SM SCT035 OVC060
FM050300 23014KT P6SM FEW060 SCT250
FM050800 22007KT P6SM SCT250
FM051500 21012KT P6SM FEW050 SCT250
KZNY FIR / North America



MET'MAP, your aeronautical weather chart ! - Copyright ORBIFLY December 2007 - Disclaimer

ORBIFLY MET'MAP TEAM :

Programming & Development : Alexandra Zaïnal
Concept & original design : Baudouin d'Aumeries
Assistance for programming : Marc-Olivier Méhu
Technical & hardware support : Manuel Goepfert

Contact : metmap@orbifly.com




SOURCES & CREDITS :

   NOAA       Earth
Advisory